Tango — WDG9982 — position and weather

sailwx.info

Track history (hours):
 
Tides and Currents Weather Stations Pressure Air Temp Water Temp Dewpoint Dewpoint Depression Visibility Wind Speed Wind Dir Waves Ship Positions

Tango

Owner: Harrington, John E, Redwood City, CA. More information available from US FCC via Universal Licensing System and Coast Guard Vessel Documentation Center.

Last reported at 2017-Dec-25 20:47 UTC. Time now 2018-Feb-20 17:04 UTC.
Position N 37°40' W 122°19'.
Warning: this ship's position is 56 days out of date.

Length 15 m.

Type: Sailing vessel. MMSI: 367593180.

Date/timePositionNaut miles runAvg speedWind from/ knotsBaromVisibWave heightAir tempDewpointWater temp
2017-Dec-25 20:47N 37°40' W 122°19'2 6.5
2017-Dec-25 20:30N 37°41' W 122°20'3 6.3
2017-Dec-25 20:00N 37°45' W 122°20'3 6.1
2017-Dec-25 19:30N 37°47' W 122°22'1 2.7
2017-Dec-25 19:00N 37°48' W 122°23'1 2.5
2017-Dec-25 18:31N 37°49' W 122°24'2 4.6
2017-Dec-25 18:00N 37°49' W 122°27'2 4.4
2017-Dec-25 17:30N 37°51' W 122°27'2 3.7
2017-Dec-25 17:00N 37°52' W 122°25'3 5.9
2017-Dec-25 16:30N 37°50' W 122°22'1 2.8
2017-Dec-25 16:00N 37°49' W 122°22'0 0.1
2017-Dec-25 15:30N 37°49' W 122°22'0 0.1
2017-Dec-25 15:00N 37°49' W 122°22'0 0.0
2017-Dec-25 04:03N 37°49' W 122°22'0 0.1
2017-Dec-25 04:00N 37°49' W 122°22'0 0.0
2017-Dec-25 03:30N 37°49' W 122°22'0 0.0
2017-Dec-25 02:59N 37°49' W 122°22'0 0.0
2017-Dec-25 02:29N 37°49' W 122°22'0 0.0
2017-Dec-25 01:59N 37°49' W 122°22'0 0.0
2017-Dec-25 01:29N 37°49' W 122°22'0 0.0
2017-Dec-25 00:59N 37°49' W 122°22'0 0.0
2017-Dec-25 00:29N 37°49' W 122°22'0 0.1
2017-Dec-24 23:59N 37°49' W 122°22'0 0.0
2017-Dec-24 23:29N 37°49' W 122°22'0 0.0
2017-Dec-24 22:59N 37°49' W 122°22'0 0.1
2017-Dec-24 22:29N 37°49' W 122°22'0 0.0
2017-Dec-24 21:59N 37°49' W 122°22'0 0.0
2017-Dec-24 21:29N 37°49' W 122°22'0 0.0
2017-Dec-24 20:59N 37°49' W 122°22'0 0.0
2017-Dec-24 20:26N 37°49' W 122°22'0 0.0
2017-Dec-24 19:59N 37°49' W 122°22'0 0.0
2017-Dec-24 19:29N 37°49' W 122°22'0 0.0
2017-Dec-24 18:59N 37°49' W 122°22'0 0.0
2017-Dec-24 18:29N 37°49' W 122°22'0 0.0
2017-Dec-24 17:59N 37°49' W 122°22'0 0.0
2017-Dec-24 17:26N 37°49' W 122°22'0 0.0
2017-Dec-24 16:59N 37°49' W 122°22'0 0.0
2017-Dec-24 16:29N 37°49' W 122°22'0 0.0
2017-Dec-24 15:59N 37°49' W 122°22'0 0.0
2017-Dec-24 15:29N 37°49' W 122°22'0 0.1
2017-Dec-24 15:00N 37°49' W 122°22'0 0.0
2017-Dec-24 14:29N 37°49' W 122°22'0 0.1
2017-Dec-24 13:59N 37°49' W 122°22'0 0.1
2017-Dec-24 13:29N 37°49' W 122°22'0 0.1
2017-Dec-24 12:59N 37°49' W 122°22'0 0.1
2017-Dec-24 12:26N 37°49' W 122°22'0 0.0
2017-Dec-24 11:59N 37°49' W 122°22'0 0.0
2017-Dec-24 11:29N 37°49' W 122°22'0 0.0
2017-Dec-24 10:59N 37°49' W 122°22'0 0.0
2017-Dec-24 10:29N 37°49' W 122°22'0 0.0
2017-Dec-24 09:59N 37°49' W 122°22'0 0.0
2017-Dec-24 09:29N 37°49' W 122°22'0 0.0
2017-Dec-24 08:56N 37°49' W 122°22'0 0.0
2017-Dec-24 08:29N 37°49' W 122°22'0 0.1
2017-Dec-24 07:59N 37°49' W 122°22'0 0.0
2017-Dec-24 07:29N 37°49' W 122°22'0 0.0
2017-Dec-24 06:59N 37°49' W 122°22'0 0.0
2017-Dec-24 06:26N 37°49' W 122°22'0 0.0
2017-Dec-24 05:59N 37°49' W 122°22'0 0.0
2017-Dec-24 05:29N 37°49' W 122°22'0 0.0
2017-Dec-24 04:59N 37°49' W 122°22'0 0.0
2017-Dec-24 04:20N 37°49' W 122°22'0 0.0
2017-Dec-24 03:59N 37°49' W 122°22'0 0.1
2017-Dec-24 03:28N 37°49' W 122°22'0 0.1
2017-Dec-24 02:58N 37°49' W 122°22'0 0.0
2017-Dec-24 02:28N 37°49' W 122°22'0 0.0
2017-Dec-24 01:58N 37°49' W 122°22'0 0.0
2017-Dec-24 01:28N 37°49' W 122°22'0 0.0
2017-Dec-24 00:58N 37°49' W 122°22'0 0.0
2017-Dec-24 00:28N 37°49' W 122°22'0 0.0
2017-Dec-23 23:55N 37°49' W 122°22'0 0.0
2017-Dec-23 23:28N 37°49' W 122°22'0 0.0
2017-Dec-23 22:58N 37°49' W 122°22'0 0.0
2017-Dec-23 22:30N 37°49' W 122°22'1 1.7
2017-Dec-23 22:00N 37°48' W 122°21'3 5.2
2017-Dec-23 21:30N 37°46' W 122°20'3 5.1
2017-Dec-23 21:00N 37°43' W 122°20'2 5.0
2017-Dec-23 20:30N 37°41' W 122°19'3 5.0
2017-Dec-23 20:00N 37°38' W 122°19'  
Track history (hours):
 
Tides and Currents Weather Stations Pressure Air Temp Water Temp Dewpoint Dewpoint Depression Visibility Wind Speed Wind Dir Waves Ship Positions

Tango

Owner: Harrington, John E, Redwood City, CA. More information available from US FCC via Universal Licensing System and Coast Guard Vessel Documentation Center.

Last reported at 2017-Dec-25 20:47 UTC. Time now 2018-Feb-20 17:04 UTC.
Position N 37°40' W 122°19'.
Warning: this ship's position is 56 days out of date.

Length 15 m.

Type: Sailing vessel. MMSI: 367593180.

Date/timePositionNaut miles runAvg speedWind from/ knotsBaromVisibWave heightAir tempDewpointWater temp
2017-Dec-25 20:47N 37°40' W 122°19'2 6.5
2017-Dec-25 20:30N 37°41' W 122°20'3 6.3
2017-Dec-25 20:00N 37°45' W 122°20'3 6.1
2017-Dec-25 19:30N 37°47' W 122°22'1 2.7
2017-Dec-25 19:00N 37°48' W 122°23'1 2.5
2017-Dec-25 18:31N 37°49' W 122°24'2 4.6
2017-Dec-25 18:00N 37°49' W 122°27'2 4.4
2017-Dec-25 17:30N 37°51' W 122°27'2 3.7
2017-Dec-25 17:00N 37°52' W 122°25'3 5.9
2017-Dec-25 16:30N 37°50' W 122°22'1 2.8
2017-Dec-25 16:00N 37°49' W 122°22'0 0.1
2017-Dec-25 15:30N 37°49' W 122°22'0 0.1
2017-Dec-25 15:00N 37°49' W 122°22'0 0.0
2017-Dec-25 04:03N 37°49' W 122°22'0 0.1
2017-Dec-25 04:00N 37°49' W 122°22'0 0.0
2017-Dec-25 03:30N 37°49' W 122°22'0 0.0
2017-Dec-25 02:59N 37°49' W 122°22'0 0.0
2017-Dec-25 02:29N 37°49' W 122°22'0 0.0
2017-Dec-25 01:59N 37°49' W 122°22'0 0.0
2017-Dec-25 01:29N 37°49' W 122°22'0 0.0
2017-Dec-25 00:59N 37°49' W 122°22'0 0.0
2017-Dec-25 00:29N 37°49' W 122°22'0 0.1
2017-Dec-24 23:59N 37°49' W 122°22'0 0.0
2017-Dec-24 23:29N 37°49' W 122°22'0 0.0
2017-Dec-24 22:59N 37°49' W 122°22'0 0.1
2017-Dec-24 22:29N 37°49' W 122°22'0 0.0
2017-Dec-24 21:59N 37°49' W 122°22'0 0.0
2017-Dec-24 21:29N 37°49' W 122°22'0 0.0
2017-Dec-24 20:59N 37°49' W 122°22'0 0.0
2017-Dec-24 20:26N 37°49' W 122°22'0 0.0
2017-Dec-24 19:59N 37°49' W 122°22'0 0.0
2017-Dec-24 19:29N 37°49' W 122°22'0 0.0
2017-Dec-24 18:59N 37°49' W 122°22'0 0.0
2017-Dec-24 18:29N 37°49' W 122°22'0 0.0
2017-Dec-24 17:59N 37°49' W 122°22'0 0.0
2017-Dec-24 17:26N 37°49' W 122°22'0 0.0
2017-Dec-24 16:59N 37°49' W 122°22'0 0.0
2017-Dec-24 16:29N 37°49' W 122°22'0 0.0
2017-Dec-24 15:59N 37°49' W 122°22'0 0.0
2017-Dec-24 15:29N 37°49' W 122°22'0 0.1
2017-Dec-24 15:00N 37°49' W 122°22'0 0.0
2017-Dec-24 14:29N 37°49' W 122°22'0 0.1
2017-Dec-24 13:59N 37°49' W 122°22'0 0.1
2017-Dec-24 13:29N 37°49' W 122°22'0 0.1
2017-Dec-24 12:59N 37°49' W 122°22'0 0.1
2017-Dec-24 12:26N 37°49' W 122°22'0 0.0
2017-Dec-24 11:59N 37°49' W 122°22'0 0.0
2017-Dec-24 11:29N 37°49' W 122°22'0 0.0
2017-Dec-24 10:59N 37°49' W 122°22'0 0.0
2017-Dec-24 10:29N 37°49' W 122°22'0 0.0
2017-Dec-24 09:59N 37°49' W 122°22'0 0.0
2017-Dec-24 09:29N 37°49' W 122°22'0 0.0
2017-Dec-24 08:56N 37°49' W 122°22'0 0.0
2017-Dec-24 08:29N 37°49' W 122°22'0 0.1
2017-Dec-24 07:59N 37°49' W 122°22'0 0.0
2017-Dec-24 07:29N 37°49' W 122°22'0 0.0
2017-Dec-24 06:59N 37°49' W 122°22'0 0.0
2017-Dec-24 06:26N 37°49' W 122°22'0 0.0
2017-Dec-24 05:59N 37°49' W 122°22'0 0.0
2017-Dec-24 05:29N 37°49' W 122°22'0 0.0
2017-Dec-24 04:59N 37°49' W 122°22'0 0.0
2017-Dec-24 04:20N 37°49' W 122°22'0 0.0
2017-Dec-24 03:59N 37°49' W 122°22'0 0.1
2017-Dec-24 03:28N 37°49' W 122°22'0 0.1
2017-Dec-24 02:58N 37°49' W 122°22'0 0.0
2017-Dec-24 02:28N 37°49' W 122°22'0 0.0
2017-Dec-24 01:58N 37°49' W 122°22'0 0.0
2017-Dec-24 01:28N 37°49' W 122°22'0 0.0
2017-Dec-24 00:58N 37°49' W 122°22'0 0.0
2017-Dec-24 00:28N 37°49' W 122°22'0 0.0
2017-Dec-23 23:55N 37°49' W 122°22'0 0.0
2017-Dec-23 23:28N 37°49' W 122°22'0 0.0
2017-Dec-23 22:58N 37°49' W 122°22'0 0.0
2017-Dec-23 22:30N 37°49' W 122°22'1 1.7
2017-Dec-23 22:00N 37°48' W 122°21'3 5.2
2017-Dec-23 21:30N 37°46' W 122°20'3 5.1
2017-Dec-23 21:00N 37°43' W 122°20'2 5.0
2017-Dec-23 20:30N 37°41' W 122°19'3 5.0
2017-Dec-23 20:00N 37°38' W 122°19'  

Dump ship's entire track history